Time;durP1;ratioP1;P1;durP2;ratioP2;P2;SDS_P1;SDS_P2;PMS_P1;PMS_P2;Temp;Humidity;BMP_temperature;BMP_pressure;BME280_temperature;BME280_humidity;BME280_pressure;Samples;Min_cycle;Max_cycle;Signal;HPM_P1;HPM_P2
2021/08/28 00:01:43;;;;;;;6.10;4.75;;;;;;;;;;5096837;28;20475;-66
2021/08/28 00:04:09;;;;;;;8.02;4.40;;;;;;;;;;5094310;28;20757;-65
2021/08/28 00:06:35;;;;;;;8.75;4.82;;;;;;;;;;5097023;28;20020;-65
2021/08/28 00:09:01;;;;;;;7.82;4.65;;;;;;;;;;5098833;28;20038;-66
2021/08/28 00:11:27;;;;;;;7.75;4.30;;;;;;;;;;5093714;28;20494;-65
2021/08/28 00:13:53;;;;;;;7.00;4.07;;;;;;;;;;5092951;28;20028;-65
2021/08/28 00:16:20;;;;;;;7.97;4.90;;;;;;;;;;5079878;28;20036;-66
2021/08/28 00:18:46;;;;;;;7.82;4.53;;;;;;;;;;5098561;28;20043;-65
2021/08/28 00:21:12;;;;;;;5.75;4.50;;;;;;;;;;5095137;28;20033;-65
2021/08/28 00:23:38;;;;;;;8.20;4.68;;;;;;;;;;5098023;28;20019;-66
2021/08/28 00:26:04;;;;;;;8.73;4.22;;;;;;;;;;5096694;28;20158;-65
2021/08/28 00:28:31;;;;;;;7.00;4.57;;;;;;;;;;5094177;28;20039;-65
2021/08/28 00:30:57;;;;;;;8.30;4.68;;;;;;;;;;5099151;28;20417;-65
2021/08/28 00:33:23;;;;;;;7.75;4.57;;;;;;;;;;5096047;28;20115;-66
2021/08/28 00:35:49;;;;;;;5.65;4.70;;;;;;;;;;5094240;28;20086;-65
2021/08/28 00:38:16;;;;;;;8.63;4.90;;;;;;;;;;5093976;28;20048;-65
2021/08/28 00:40:42;;;;;;;10.95;4.80;;;;;;;;;;5094797;28;20028;-65
2021/08/28 00:43:08;;;;;;;12.23;5.22;;;;;;;;;;5095875;28;20031;-66
2021/08/28 00:45:37;;;;;;;14.40;5.47;;;;;;;;;;5095607;28;20024;-66
2021/08/28 00:48:04;;;;;;;9.23;5.07;;;;;;;;;;5097894;28;20034;-65
2021/08/28 00:50:33;;;;;;;8.35;4.53;;;;;;;;;;5092299;28;20024;-65
2021/08/28 00:52:59;;;;;;;8.32;4.80;;;;;;;;;;5090901;28;20028;-65
2021/08/28 00:55:26;;;;;;;7.63;4.63;;;;;;;;;;5086272;28;20048;-65
2021/08/28 00:57:53;;;;;;;9.75;5.13;;;;;;;;;;5093906;28;20392;-65
2021/08/28 01:00:20;;;;;;;9.50;5.10;;;;;;;;;;5087808;28;20027;-66
2021/08/28 01:02:47;;;;;;;8.27;5.00;;;;;;;;;;5091233;28;20020;-66
2021/08/28 01:05:26;;;;;;;6.13;4.35;;;;;;;;;;5089412;28;20024;-65
2021/08/28 01:07:52;;;;;;;7.10;4.75;;;;;;;;;;5090235;28;20479;-65
2021/08/28 01:10:19;;;;;;;6.47;4.57;;;;;;;;;;5088049;28;20028;-64
2021/08/28 01:12:47;;;;;;;14.40;5.30;;;;;;;;;;5090159;28;20121;-65
2021/08/28 01:15:14;;;;;;;13.43;5.72;;;;;;;;;;5089338;28;20145;-64
2021/08/28 01:17:46;;;;;;;9.00;5.10;;;;;;;;;;5091790;28;20468;-65
2021/08/28 01:20:31;;;;;;;9.38;5.18;;;;;;;;;;5090522;28;20019;-65
2021/08/28 01:22:58;;;;;;;8.82;4.93;;;;;;;;;;5091539;28;20039;-65
2021/08/28 01:25:24;;;;;;;6.75;4.88;;;;;;;;;;5087842;28;20016;-65
2021/08/28 01:28:00;;;;;;;6.20;5.03;;;;;;;;;;5091132;28;20013;-64
2021/08/28 01:30:26;;;;;;;9.82;5.40;;;;;;;;;;5093904;28;20029;-65
2021/08/28 01:32:53;;;;;;;9.13;5.68;;;;;;;;;;5091428;28;20042;-65
2021/08/28 01:35:21;;;;;;;12.38;4.80;;;;;;;;;;5072609;28;20021;-65
2021/08/28 01:37:47;;;;;;;6.38;4.45;;;;;;;;;;5093531;28;20517;-65
2021/08/28 01:40:15;;;;;;;6.35;5.00;;;;;;;;;;5093888;28;20051;-65
2021/08/28 01:42:42;;;;;;;6.60;4.60;;;;;;;;;;5092166;28;20026;-64
2021/08/28 01:45:11;;;;;;;8.93;5.07;;;;;;;;;;5089730;28;20032;-64
2021/08/28 01:47:38;;;;;;;5.40;4.15;;;;;;;;;;5095212;28;20651;-64
2021/08/28 01:50:04;;;;;;;7.40;4.78;;;;;;;;;;5090185;28;20024;-65
2021/08/28 01:52:30;;;;;;;7.22;5.05;;;;;;;;;;5092309;28;20024;-64
2021/08/28 01:54:58;;;;;;;10.27;4.65;;;;;;;;;;5092508;28;20039;-65
2021/08/28 01:57:24;;;;;;;7.07;4.47;;;;;;;;;;5089342;28;20048;-64
2021/08/28 01:59:51;;;;;;;5.78;4.93;;;;;;;;;;5093663;28;20024;-64
2021/08/28 02:02:17;;;;;;;6.93;4.82;;;;;;;;;;5085913;28;20053;-65
2021/08/28 02:04:44;;;;;;;7.30;4.25;;;;;;;;;;5092403;28;20555;-66
2021/08/28 02:07:13;;;;;;;6.72;4.82;;;;;;;;;;5091876;28;20031;-64
2021/08/28 02:09:48;;;;;;;8.43;5.10;;;;;;;;;;5089851;28;20617;-65
2021/08/28 02:12:14;;;;;;;8.27;4.60;;;;;;;;;;5091447;28;20023;-65
2021/08/28 02:14:59;;;;;;;7.47;4.55;;;;;;;;;;5090008;28;20023;-65
2021/08/28 02:17:27;;;;;;;7.15;4.65;;;;;;;;;;5092265;28;20038;-65
2021/08/28 02:19:54;;;;;;;11.25;4.47;;;;;;;;;;5088729;28;20040;-65
2021/08/28 02:22:22;;;;;;;8.07;4.88;;;;;;;;;;5086884;28;20605;-65
2021/08/28 02:24:52;;;;;;;14.27;5.13;;;;;;;;;;5092326;28;20103;-65
2021/08/28 02:27:26;;;;;;;30.20;5.85;;;;;;;;;;5091067;28;20031;-64
2021/08/28 02:30:00;;;;;;;7.57;4.53;;;;;;;;;;5087054;28;20435;-65
2021/08/28 02:32:27;;;;;;;8.18;4.80;;;;;;;;;;5089170;28;20020;-65
2021/08/28 02:34:54;;;;;;;6.57;4.88;;;;;;;;;;5093609;28;20061;-65
2021/08/28 02:37:21;;;;;;;8.38;5.05;;;;;;;;;;5089260;28;20035;-65
2021/08/28 02:39:47;;;;;;;8.30;4.85;;;;;;;;;;5087709;28;20066;-65
2021/08/28 02:42:14;;;;;;;7.80;4.88;;;;;;;;;;5090977;28;20059;-64
2021/08/28 02:44:42;;;;;;;8.95;4.97;;;;;;;;;;5087698;28;20032;-65
2021/08/28 02:47:09;;;;;;;5.70;4.50;;;;;;;;;;5092617;28;20020;-65
2021/08/28 02:49:37;;;;;;;10.63;5.00;;;;;;;;;;5090176;28;20027;-65
2021/08/28 02:52:05;;;;;;;9.35;5.47;;;;;;;;;;5091663;28;20030;-65
2021/08/28 02:54:32;;;;;;;10.60;5.05;;;;;;;;;;5088512;28;20040;-65
2021/08/28 02:56:58;;;;;;;6.72;4.82;;;;;;;;;;5091400;28;20031;-63
2021/08/28 02:59:25;;;;;;;6.88;4.50;;;;;;;;;;5092959;28;20027;-65
2021/08/28 03:01:51;;;;;;;10.85;4.55;;;;;;;;;;5088555;28;20023;-65
2021/08/28 03:04:18;;;;;;;6.93;4.78;;;;;;;;;;5093200;28;20023;-66
2021/08/28 03:06:46;;;;;;;9.07;4.43;;;;;;;;;;5089804;28;20077;-65
2021/08/28 03:09:12;;;;;;;8.23;4.45;;;;;;;;;;5091854;28;20027;-65
2021/08/28 03:11:38;;;;;;;7.97;4.97;;;;;;;;;;5089582;28;20070;-66
2021/08/28 03:14:05;;;;;;;7.72;4.70;;;;;;;;;;5092098;28;20020;-65
2021/08/28 03:16:31;;;;;;;8.60;4.68;;;;;;;;;;5090998;28;20110;-65
2021/08/28 03:18:59;;;;;;;6.07;4.70;;;;;;;;;;5093814;28;20044;-65
2021/08/28 03:21:26;;;;;;;7.05;4.75;;;;;;;;;;5092643;28;20012;-65
2021/08/28 03:23:54;;;;;;;9.50;5.22;;;;;;;;;;5087121;28;20929;-64
2021/08/28 03:26:22;;;;;;;8.13;4.82;;;;;;;;;;5093787;28;20051;-63
2021/08/28 03:28:49;;;;;;;7.40;4.97;;;;;;;;;;5091987;28;20028;-65
2021/08/28 03:31:16;;;;;;;6.20;4.80;;;;;;;;;;5087777;28;20666;-65
2021/08/28 03:33:43;;;;;;;15.52;5.30;;;;;;;;;;5088791;28;20016;-64
2021/08/28 03:36:10;;;;;;;11.18;5.47;;;;;;;;;;5092271;28;20027;-64
2021/08/28 03:38:36;;;;;;;9.98;5.07;;;;;;;;;;5091315;28;20032;-65
2021/08/28 03:41:02;;;;;;;9.52;5.80;;;;;;;;;;5072949;28;20414;-65
2021/08/28 03:43:28;;;;;;;13.13;5.22;;;;;;;;;;5094070;28;20058;-65
2021/08/28 03:45:55;;;;;;;12.93;5.50;;;;;;;;;;5089819;28;20115;-65
2021/08/28 03:48:22;;;;;;;9.75;5.25;;;;;;;;;;5095122;28;20035;-65
2021/08/28 03:50:49;;;;;;;8.60;4.82;;;;;;;;;;5090134;28;20071;-65
2021/08/28 03:53:15;;;;;;;8.85;5.03;;;;;;;;;;5089995;28;20070;-66
2021/08/28 03:55:41;;;;;;;6.47;5.28;;;;;;;;;;5089504;28;20488;-65
2021/08/28 03:58:07;;;;;;;7.03;4.95;;;;;;;;;;5091799;28;20040;-65
2021/08/28 04:00:33;;;;;;;7.38;5.63;;;;;;;;;;5089831;28;20464;-65
2021/08/28 04:03:00;;;;;;;11.65;5.65;;;;;;;;;;5091428;28;20066;-65
2021/08/28 04:05:26;;;;;;;10.68;6.05;;;;;;;;;;5088608;28;20380;-64
2021/08/28 04:07:52;;;;;;;7.00;5.10;;;;;;;;;;5087907;28;20529;-64
2021/08/28 04:10:19;;;;;;;6.57;5.40;;;;;;;;;;5092272;28;20032;-66
2021/08/28 04:12:45;;;;;;;10.02;5.25;;;;;;;;;;5092967;28;20026;-64
2021/08/28 04:15:12;;;;;;;10.65;5.32;;;;;;;;;;5090260;28;20522;-64
2021/08/28 04:17:38;;;;;;;11.30;5.43;;;;;;;;;;5093864;28;20043;-64
2021/08/28 04:20:04;;;;;;;7.53;6.03;;;;;;;;;;5089282;28;20024;-64
2021/08/28 04:22:31;;;;;;;8.77;5.55;;;;;;;;;;5091746;28;20028;-64
2021/08/28 04:24:57;;;;;;;9.38;5.45;;;;;;;;;;5088652;28;20017;-64
2021/08/28 04:27:23;;;;;;;10.02;5.40;;;;;;;;;;5092189;28;20447;-64
2021/08/28 04:29:49;;;;;;;12.13;6.00;;;;;;;;;;5071320;28;20011;-64
2021/08/28 04:32:15;;;;;;;11.63;6.25;;;;;;;;;;5090739;28;20396;-64
2021/08/28 04:34:41;;;;;;;13.05;6.00;;;;;;;;;;5093079;28;20414;-64
2021/08/28 04:37:08;;;;;;;11.02;5.90;;;;;;;;;;5089608;28;20153;-65
2021/08/28 04:39:34;;;;;;;7.88;5.50;;;;;;;;;;5091727;28;20096;-64
2021/08/28 04:42:00;;;;;;;8.90;5.63;;;;;;;;;;5092143;28;20027;-64
2021/08/28 04:44:26;;;;;;;8.63;6.03;;;;;;;;;;5087409;28;20028;-64
2021/08/28 04:46:52;;;;;;;10.20;5.88;;;;;;;;;;5092666;28;20019;-64
2021/08/28 04:49:18;;;;;;;8.43;6.05;;;;;;;;;;5088278;28;20024;-64
2021/08/28 04:51:44;;;;;;;9.88;5.50;;;;;;;;;;5088810;28;20046;-64
2021/08/28 04:54:11;;;;;;;9.48;6.32;;;;;;;;;;5089471;28;20052;-64
2021/08/28 04:56:37;;;;;;;10.38;6.05;;;;;;;;;;5091723;28;20016;-64
2021/08/28 04:59:03;;;;;;;10.07;5.80;;;;;;;;;;5091089;28;20044;-64
2021/08/28 05:01:29;;;;;;;9.48;6.07;;;;;;;;;;5091418;28;20081;-64
2021/08/28 05:03:55;;;;;;;11.57;7.28;;;;;;;;;;5089257;28;20032;-64
2021/08/28 05:06:21;;;;;;;10.93;6.20;;;;;;;;;;5088686;28;20027;-65
2021/08/28 05:08:47;;;;;;;10.43;5.72;;;;;;;;;;5093029;28;20028;-66
2021/08/28 05:11:13;;;;;;;8.77;5.60;;;;;;;;;;5090881;28;20031;-65
2021/08/28 05:13:40;;;;;;;12.13;5.78;;;;;;;;;;5090904;28;20028;-66
2021/08/28 05:16:06;;;;;;;12.88;6.05;;;;;;;;;;5089216;28;20036;-65
2021/08/28 05:18:34;;;;;;;20.27;6.22;;;;;;;;;;5088685;28;20032;-65
2021/08/28 05:21:00;;;;;;;9.70;5.88;;;;;;;;;;5088280;28;20872;-66
2021/08/28 05:23:27;;;;;;;8.40;5.53;;;;;;;;;;5089483;28;20039;-65
2021/08/28 05:25:53;;;;;;;10.75;5.85;;;;;;;;;;5091387;28;20012;-65
2021/08/28 05:28:19;;;;;;;12.48;6.32;;;;;;;;;;5089762;28;20032;-65
2021/08/28 05:30:45;;;;;;;9.05;6.00;;;;;;;;;;5088026;28;20476;-68
2021/08/28 05:33:11;;;;;;;13.05;6.82;;;;;;;;;;5088198;28;20036;-65
2021/08/28 05:35:37;;;;;;;11.15;6.07;;;;;;;;;;5087481;28;20024;-65
2021/08/28 05:38:03;;;;;;;8.82;5.40;;;;;;;;;;5091030;28;20214;-65
2021/08/28 05:40:29;;;;;;;10.32;5.68;;;;;;;;;;5074321;28;20500;-65
2021/08/28 05:42:56;;;;;;;15.93;5.97;;;;;;;;;;5087390;28;20024;-65
2021/08/28 05:45:22;;;;;;;10.90;6.55;;;;;;;;;;5088094;28;20032;-66
2021/08/28 05:47:48;;;;;;;8.30;6.03;;;;;;;;;;5089795;28;20028;-65
2021/08/28 05:50:14;;;;;;;8.93;5.22;;;;;;;;;;5091126;28;20070;-65
2021/08/28 05:52:40;;;;;;;15.27;5.80;;;;;;;;;;5082689;28;20033;-65
2021/08/28 05:55:10;;;;;;;8.82;5.55;;;;;;;;;;5092827;28;20120;-65
2021/08/28 05:57:37;;;;;;;7.82;5.88;;;;;;;;;;5088364;28;20235;-65
2021/08/28 06:00:04;;;;;;;11.73;5.82;;;;;;;;;;5090039;28;20119;-66
2021/08/28 06:02:30;;;;;;;8.23;5.90;;;;;;;;;;5083744;28;20023;-65
2021/08/28 06:04:56;;;;;;;9.63;5.45;;;;;;;;;;5089433;28;20028;-66
2021/08/28 06:07:23;;;;;;;8.82;5.70;;;;;;;;;;5090915;28;20501;-66
2021/08/28 06:09:49;;;;;;;9.43;5.20;;;;;;;;;;5087963;28;20496;-65
2021/08/28 06:12:15;;;;;;;6.38;5.00;;;;;;;;;;5085385;28;20028;-66
2021/08/28 06:14:41;;;;;;;8.40;5.75;;;;;;;;;;5089959;28;20026;-68
2021/08/28 06:17:07;;;;;;;10.40;5.90;;;;;;;;;;5085361;28;20394;-65
2021/08/28 06:19:34;;;;;;;9.65;5.32;;;;;;;;;;5087574;28;20384;-66
2021/08/28 06:22:00;;;;;;;9.80;6.05;;;;;;;;;;5087502;28;20028;-66
2021/08/28 06:24:26;;;;;;;9.23;5.75;;;;;;;;;;5088478;28;20076;-65
2021/08/28 06:26:52;;;;;;;12.40;5.80;;;;;;;;;;5088669;28;20012;-65
2021/08/28 06:29:18;;;;;;;6.85;5.40;;;;;;;;;;5091309;28;20062;-65
2021/08/28 06:31:44;;;;;;;13.57;5.53;;;;;;;;;;5089606;28;20015;-65
2021/08/28 06:34:10;;;;;;;8.70;5.95;;;;;;;;;;5088471;28;20032;-65
2021/08/28 06:36:37;;;;;;;7.60;5.13;;;;;;;;;;5090158;28;20505;-65
2021/08/28 06:39:03;;;;;;;9.75;5.90;;;;;;;;;;5091284;28;20405;-65
2021/08/28 06:41:29;;;;;;;9.13;5.50;;;;;;;;;;5090312;28;20069;-65
2021/08/28 06:43:55;;;;;;;10.98;5.35;;;;;;;;;;5091740;28;20026;-66
2021/08/28 06:46:21;;;;;;;8.30;5.30;;;;;;;;;;5092333;28;20027;-66
2021/08/28 06:48:48;;;;;;;8.45;5.40;;;;;;;;;;5093019;28;20024;-67
2021/08/28 06:51:14;;;;;;;7.63;5.60;;;;;;;;;;5094743;28;20110;-69
2021/08/28 06:53:40;;;;;;;8.30;5.15;;;;;;;;;;5093254;28;20028;-66
2021/08/28 06:56:06;;;;;;;11.52;5.57;;;;;;;;;;5091381;28;20142;-66
2021/08/28 06:58:32;;;;;;;8.00;5.25;;;;;;;;;;5096940;28;20036;-66
2021/08/28 07:00:58;;;;;;;9.05;5.53;;;;;;;;;;5090454;28;20016;-66
2021/08/28 07:03:25;;;;;;;8.30;6.00;;;;;;;;;;5095498;28;20024;-66
2021/08/28 07:05:51;;;;;;;7.25;5.35;;;;;;;;;;5088345;28;20099;-67
2021/08/28 07:08:17;;;;;;;11.85;5.38;;;;;;;;;;5093683;28;20065;-68
2021/08/28 07:10:43;;;;;;;9.68;5.45;;;;;;;;;;5092734;28;20027;-68
2021/08/28 07:13:09;;;;;;;11.00;6.13;;;;;;;;;;5087454;28;20038;-67
2021/08/28 07:15:35;;;;;;;8.20;5.50;;;;;;;;;;5094485;28;20020;-70
2021/08/28 07:18:02;;;;;;;11.15;5.90;;;;;;;;;;5090468;28;20028;-67
2021/08/28 07:20:28;;;;;;;7.25;5.28;;;;;;;;;;5094611;28;20096;-67
2021/08/28 07:22:54;;;;;;;7.82;5.43;;;;;;;;;;5091886;28;20077;-66
2021/08/28 07:25:20;;;;;;;8.07;5.45;;;;;;;;;;5072213;28;20024;-68
2021/08/28 07:27:46;;;;;;;9.00;5.35;;;;;;;;;;5092710;28;20050;-67
2021/08/28 07:30:13;;;;;;;9.38;5.70;;;;;;;;;;5092053;28;20032;-68
2021/08/28 07:32:39;;;;;;;12.25;6.13;;;;;;;;;;5089426;28;20042;-68
2021/08/28 07:35:06;;;;;;;10.02;5.72;;;;;;;;;;5094254;28;20163;-68
2021/08/28 07:37:32;;;;;;;11.15;5.75;;;;;;;;;;5091186;28;20052;-68
2021/08/28 07:39:58;;;;;;;9.02;5.60;;;;;;;;;;5092486;28;20504;-68
2021/08/28 07:42:24;;;;;;;7.45;5.35;;;;;;;;;;5089375;28;20036;-67
2021/08/28 07:44:50;;;;;;;7.28;5.43;;;;;;;;;;5094186;28;20028;-67
2021/08/28 07:47:16;;;;;;;9.85;5.40;;;;;;;;;;5090517;28;20016;-67
2021/08/28 07:49:43;;;;;;;12.32;6.18;;;;;;;;;;5092866;28;20026;-67
2021/08/28 07:52:09;;;;;;;9.70;5.20;;;;;;;;;;5092375;28;20073;-67
2021/08/28 07:54:35;;;;;;;8.93;5.43;;;;;;;;;;5087235;28;20133;-67
2021/08/28 07:57:01;;;;;;;12.25;5.72;;;;;;;;;;5094657;28;20023;-66
2021/08/28 07:59:28;;;;;;;8.10;5.30;;;;;;;;;;5090940;28;20036;-67
2021/08/28 08:01:54;;;;;;;12.02;5.28;;;;;;;;;;5092911;28;20016;-67
2021/08/28 08:04:20;;;;;;;7.25;5.32;;;;;;;;;;5087708;28;20097;-67
2021/08/28 08:06:47;;;;;;;9.57;5.25;;;;;;;;;;5091592;28;20023;-67
2021/08/28 08:09:14;;;;;;;7.97;5.50;;;;;;;;;;5092777;28;20084;-67
2021/08/28 08:11:40;;;;;;;10.98;5.65;;;;;;;;;;5091433;28;20155;-67
2021/08/28 08:14:06;;;;;;;8.80;5.93;;;;;;;;;;5093107;28;20603;-68
2021/08/28 08:16:33;;;;;;;6.78;5.30;;;;;;;;;;5087173;28;20020;-68
2021/08/28 08:18:59;;;;;;;9.90;5.20;;;;;;;;;;5094128;28;20038;-70
2021/08/28 08:21:25;;;;;;;9.40;5.15;;;;;;;;;;5091440;28;20035;-68
2021/08/28 08:23:51;;;;;;;8.07;5.15;;;;;;;;;;5091476;28;20031;-68
2021/08/28 08:26:17;;;;;;;8.32;5.05;;;;;;;;;;5091469;28;20043;-67
2021/08/28 08:28:45;;;;;;;10.05;5.38;;;;;;;;;;5091643;28;20468;-70
2021/08/28 08:31:11;;;;;;;11.35;5.20;;;;;;;;;;5091574;28;20034;-68
2021/08/28 08:33:38;;;;;;;8.75;5.20;;;;;;;;;;5091529;28;20081;-68
2021/08/28 08:36:04;;;;;;;12.30;5.60;;;;;;;;;;5091211;28;20058;-70
2021/08/28 08:38:30;;;;;;;9.75;5.65;;;;;;;;;;5092312;28;20035;-68
2021/08/28 08:40:56;;;;;;;9.13;5.13;;;;;;;;;;5087993;28;20028;-71
2021/08/28 08:43:23;;;;;;;6.97;4.95;;;;;;;;;;5072361;28;20028;-68
2021/08/28 08:45:49;;;;;;;9.43;5.65;;;;;;;;;;5085303;28;20024;-69
2021/08/28 08:48:16;;;;;;;7.80;5.13;;;;;;;;;;5093831;28;20041;-69
2021/08/28 08:50:43;;;;;;;8.45;5.30;;;;;;;;;;5088332;28;20554;-69
2021/08/28 08:53:10;;;;;;;8.45;5.40;;;;;;;;;;5092445;28;20811;-71
2021/08/28 08:55:36;;;;;;;9.93;5.45;;;;;;;;;;5088958;28;20044;-71
2021/08/28 08:58:02;;;;;;;9.32;5.20;;;;;;;;;;5085484;28;20825;-67
2021/08/28 09:00:28;;;;;;;10.05;5.05;;;;;;;;;;5089879;28;20483;-68
2021/08/28 09:02:54;;;;;;;12.23;5.25;;;;;;;;;;5089311;28;20089;-68
2021/08/28 09:05:20;;;;;;;10.40;5.25;;;;;;;;;;5089959;28;20032;-68
2021/08/28 09:07:47;;;;;;;9.10;5.82;;;;;;;;;;5076485;28;20343;-70
2021/08/28 09:10:13;;;;;;;10.07;5.18;;;;;;;;;;5090122;28;20030;-68
2021/08/28 09:12:43;;;;;;;9.88;5.10;;;;;;;;;;5092402;28;20101;-68
2021/08/28 09:15:12;;;;;;;10.00;5.10;;;;;;;;;;5089035;28;20051;-70
2021/08/28 09:17:39;;;;;;;10.55;5.22;;;;;;;;;;5088533;28;20157;-69
2021/08/28 09:20:22;;;;;;;10.73;5.47;;;;;;;;;;5092324;28;20057;-68
2021/08/28 09:22:48;;;;;;;8.57;5.15;;;;;;;;;;5093216;28;20031;-68
2021/08/28 09:25:21;;;;;;;7.97;4.88;;;;;;;;;;5087249;28;20078;-68
2021/08/28 09:27:49;;;;;;;9.95;4.75;;;;;;;;;;5088471;28;20028;-68
2021/08/28 09:30:23;;;;;;;10.20;4.90;;;;;;;;;;5090017;28;20036;-68
2021/08/28 09:32:57;;;;;;;8.18;5.05;;;;;;;;;;5067920;28;20024;-67
2021/08/28 09:35:25;;;;;;;7.55;4.85;;;;;;;;;;5091152;28;20085;-68
2021/08/28 09:37:52;;;;;;;7.35;4.53;;;;;;;;;;5093753;28;20107;-69
2021/08/28 09:40:21;;;;;;;6.53;4.85;;;;;;;;;;5090469;28;20150;-70
2021/08/28 09:42:53;;;;;;;9.70;4.70;;;;;;;;;;5091265;28;20089;-69
2021/08/28 09:45:21;;;;;;;8.48;5.15;;;;;;;;;;5092020;28;20026;-67
2021/08/28 09:47:48;;;;;;;9.40;5.50;;;;;;;;;;5089727;28;20020;-70
2021/08/28 09:50:23;;;;;;;10.30;5.05;;;;;;;;;;5091426;28;20022;-69
2021/08/28 09:52:50;;;;;;;9.95;5.28;;;;;;;;;;5071269;28;20024;-69
2021/08/28 09:55:16;;;;;;;9.90;4.65;;;;;;;;;;5092570;28;20119;-69
2021/08/28 09:57:42;;;;;;;10.30;5.25;;;;;;;;;;5093366;28;20111;-69
2021/08/28 10:00:09;;;;;;;7.28;4.90;;;;;;;;;;5088952;28;20032;-68
2021/08/28 10:02:36;;;;;;;12.13;5.03;;;;;;;;;;5089439;28;20067;-68
2021/08/28 10:05:02;;;;;;;9.00;5.35;;;;;;;;;;5090303;28;20491;-69
2021/08/28 10:07:33;;;;;;;10.57;5.45;;;;;;;;;;5091841;28;20024;-68
2021/08/28 10:10:00;;;;;;;8.63;5.15;;;;;;;;;;5092285;28;20066;-68
2021/08/28 10:12:26;;;;;;;9.65;5.15;;;;;;;;;;5086695;28;20024;-68
2021/08/28 10:14:55;;;;;;;9.93;5.43;;;;;;;;;;5092264;28;20092;-71
2021/08/28 10:17:21;;;;;;;13.75;5.32;;;;;;;;;;5089034;28;20031;-68
2021/08/28 10:19:57;;;;;;;9.25;4.85;;;;;;;;;;5071655;28;20039;-68
2021/08/28 10:22:25;;;;;;;8.50;5.20;;;;;;;;;;5087627;28;20624;-68
2021/08/28 10:24:54;;;;;;;7.85;4.93;;;;;;;;;;5091110;28;20024;-69
2021/08/28 10:27:21;;;;;;;6.85;4.82;;;;;;;;;;5086657;28;20040;-68
2021/08/28 10:29:48;;;;;;;7.68;4.47;;;;;;;;;;5090149;28;20024;-69
2021/08/28 10:32:14;;;;;;;9.88;4.95;;;;;;;;;;5085117;28;20077;-68
2021/08/28 10:34:41;;;;;;;9.93;4.90;;;;;;;;;;5089836;28;20020;-68
2021/08/28 10:37:07;;;;;;;9.30;5.25;;;;;;;;;;5073044;28;20407;-68
2021/08/28 10:39:34;;;;;;;9.05;4.63;;;;;;;;;;5071792;28;20039;-68
2021/08/28 10:42:00;;;;;;;8.65;4.95;;;;;;;;;;5086624;28;20026;-68
2021/08/28 10:44:27;;;;;;;9.30;5.57;;;;;;;;;;5090254;28;20411;-68
2021/08/28 10:46:53;;;;;;;9.25;4.82;;;;;;;;;;5084939;28;20015;-69
2021/08/28 10:49:21;;;;;;;9.50;5.50;;;;;;;;;;5065785;28;20520;-70
2021/08/28 10:51:53;;;;;;;9.38;5.50;;;;;;;;;;5090242;28;20036;-67
2021/08/28 10:54:23;;;;;;;13.50;5.50;;;;;;;;;;5088359;28;20036;-67
2021/08/28 10:56:52;;;;;;;9.80;5.00;;;;;;;;;;5090025;28;20179;-69
2021/08/28 10:59:20;;;;;;;10.65;5.00;;;;;;;;;;5088850;28;20032;-67
2021/08/28 11:01:50;;;;;;;8.77;4.75;;;;;;;;;;5086891;28;20574;-66
2021/08/28 11:04:34;;;;;;;14.40;5.53;;;;;;;;;;5089924;28;20027;-66
2021/08/28 11:07:36;;;;;;;8.80;4.72;;;;;;;;;;5087400;28;20146;-67
2021/08/28 11:10:11;;;;;;;8.07;4.90;;;;;;;;;;4998238;28;20031;-67
2021/08/28 11:12:46;;;;;;;9.65;5.13;;;;;;;;;;5074884;28;20059;-67
2021/08/28 11:15:27;;;;;;;8.30;4.75;;;;;;;;;;5085439;28;20020;-66
2021/08/28 11:17:53;;;;;;;;;;;;;;;;;;5092089;28;20042;-67
2021/08/28 11:20:27;;;;;;;7.30;4.82;;;;;;;;;;5088011;28;19904;-67
2021/08/28 11:22:53;;;;;;;9.38;5.25;;;;;;;;;;5084337;28;20049;-66
2021/08/28 11:25:20;;;;;;;7.78;4.93;;;;;;;;;;5089345;28;20032;-68
2021/08/28 11:27:47;;;;;;;10.45;4.95;;;;;;;;;;5092915;28;20032;-67
2021/08/28 11:30:15;;;;;;;12.20;5.55;;;;;;;;;;5091259;28;20081;-68
2021/08/28 11:32:41;;;;;;;9.70;4.50;;;;;;;;;;5090014;28;20039;-73
2021/08/28 11:35:07;;;;;;;11.70;5.07;;;;;;;;;;5092927;28;20035;-66
2021/08/28 11:37:37;;;;;;;10.32;5.00;;;;;;;;;;5094325;28;20024;-68
2021/08/28 11:40:03;;;;;;;7.05;4.90;;;;;;;;;;5089741;28;20027;-67
2021/08/28 11:42:31;;;;;;;7.05;4.32;;;;;;;;;;5090941;28;20372;-71
2021/08/28 11:44:58;;;;;;;6.80;4.70;;;;;;;;;;5092483;28;20897;-73
2021/08/28 11:47:24;;;;;;;11.00;4.60;;;;;;;;;;5091589;28;20031;-66
2021/08/28 11:49:53;;;;;;;9.93;5.35;;;;;;;;;;5091595;28;20609;-67
2021/08/28 11:54:58;;;;;;;7.63;4.38;;;;;;;;;;4049782;22;20036;-68
2021/08/28 11:57:24;;;;;;;11.50;5.38;;;;;;;;;;5025764;28;20472;-68
2021/08/28 11:59:50;;;;;;;8.77;4.68;;;;;;;;;;5039234;28;20029;-68
2021/08/28 12:02:20;;;;;;;9.38;5.03;;;;;;;;;;5041411;28;20033;-69
2021/08/28 12:04:47;;;;;;;11.88;5.60;;;;;;;;;;5041352;28;20025;-69
2021/08/28 12:07:13;;;;;;;10.60;5.20;;;;;;;;;;5040338;28;20096;-69
2021/08/28 12:09:40;;;;;;;11.02;5.05;;;;;;;;;;5040701;28;20514;-71
2021/08/28 12:12:06;;;;;;;8.88;4.85;;;;;;;;;;5041156;28;20075;-69
2021/08/28 12:14:33;;;;;;;10.18;4.90;;;;;;;;;;5040688;28;20012;-69
2021/08/28 12:16:59;;;;;;;8.43;5.07;;;;;;;;;;5040937;28;20032;-68
2021/08/28 12:19:27;;;;;;;5.85;4.28;;;;;;;;;;5041203;28;20036;-69
2021/08/28 12:21:54;;;;;;;8.07;4.50;;;;;;;;;;5039387;28;20027;-70
2021/08/28 12:24:20;;;;;;;10.50;4.95;;;;;;;;;;5038846;28;20048;-70
2021/08/28 12:26:57;;;;;;;7.55;4.20;;;;;;;;;;5040934;28;20028;-69
2021/08/28 12:29:31;;;;;;;7.82;4.85;;;;;;;;;;5023573;28;20182;-69
2021/08/28 12:32:02;;;;;;;11.60;5.22;;;;;;;;;;5023018;28;20117;-69
2021/08/28 12:34:30;;;;;;;7.10;4.50;;;;;;;;;;5039841;28;20041;-70
2021/08/28 12:36:57;;;;;;;7.00;4.05;;;;;;;;;;5039521;28;20017;-69
2021/08/28 12:39:23;;;;;;;7.88;4.90;;;;;;;;;;5041342;28;20522;-70
2021/08/28 12:41:50;;;;;;;9.00;4.85;;;;;;;;;;5041220;28;20021;-70
2021/08/28 12:44:17;;;;;;;10.82;4.95;;;;;;;;;;5029522;28;20032;-71
2021/08/28 12:46:45;;;;;;;10.02;4.72;;;;;;;;;;5039587;28;20078;-70
2021/08/28 12:49:19;;;;;;;11.57;4.45;;;;;;;;;;5041394;28;20051;-70
2021/08/28 12:51:48;;;;;;;8.52;4.55;;;;;;;;;;5039893;28;20557;-70
2021/08/28 12:54:18;;;;;;;10.50;4.65;;;;;;;;;;5040397;28;20063;-69
2021/08/28 12:56:49;;;;;;;9.18;4.75;;;;;;;;;;5038741;28;20179;-69
2021/08/28 12:59:19;;;;;;;6.87;4.47;;;;;;;;;;5026967;28;20029;-72
2021/08/28 13:01:48;;;;;;;7.50;4.60;;;;;;;;;;5040377;28;20114;-68
2021/08/28 13:04:15;;;;;;;7.38;4.40;;;;;;;;;;5040069;28;20112;-68
2021/08/28 13:06:41;;;;;;;8.38;4.70;;;;;;;;;;5037011;28;20033;-68
2021/08/28 13:09:16;;;;;;;8.50;4.47;;;;;;;;;;5040377;28;20043;-68
2021/08/28 13:11:56;;;;;;;7.85;5.03;;;;;;;;;;5027538;28;20021;-68
2021/08/28 13:14:22;;;;;;;6.50;4.25;;;;;;;;;;5033704;28;20029;-68
2021/08/28 13:16:58;;;;;;;6.65;4.30;;;;;;;;;;5040299;28;20097;-68
2021/08/28 13:19:34;;;;;;;6.18;4.53;;;;;;;;;;5038417;28;20036;-68
2021/08/28 13:22:01;;;;;;;7.32;4.18;;;;;;;;;;5039884;28;20035;-68
2021/08/28 13:24:27;;;;;;;5.82;4.40;;;;;;;;;;5038270;28;20025;-68
2021/08/28 13:26:56;;;;;;;9.93;5.07;;;;;;;;;;5039857;28;20873;-68
2021/08/28 13:29:32;;;;;;;9.60;4.63;;;;;;;;;;5038966;28;20432;-68
2021/08/28 13:32:12;;;;;;;7.88;4.40;;;;;;;;;;5039868;28;20025;-68
2021/08/28 13:34:39;;;;;;;9.90;5.18;;;;;;;;;;5040506;28;20032;-68
2021/08/28 13:37:07;;;;;;;10.73;4.38;;;;;;;;;;5039165;28;20075;-68
2021/08/28 13:39:33;;;;;;;8.38;4.80;;;;;;;;;;5039910;28;20040;-68
2021/08/28 13:42:00;;;;;;;9.63;4.50;;;;;;;;;;5039788;28;20043;-68
2021/08/28 13:44:26;;;;;;;6.90;4.38;;;;;;;;;;5038375;28;20035;-69
2021/08/28 13:46:52;;;;;;;9.65;4.13;;;;;;;;;;5039427;28;20454;-69
2021/08/28 13:49:18;;;;;;;10.13;4.97;;;;;;;;;;5039490;28;20021;-69
2021/08/28 13:51:45;;;;;;;22.98;6.43;;;;;;;;;;5039515;28;20127;-69
2021/08/28 13:54:11;;;;;;;10.85;4.85;;;;;;;;;;5037649;28;20021;-68
2021/08/28 13:56:37;;;;;;;8.07;4.63;;;;;;;;;;5027923;28;20041;-71
2021/08/28 13:59:04;;;;;;;9.95;4.90;;;;;;;;;;5028274;28;20037;-72
2021/08/28 14:01:30;;;;;;;5.85;4.10;;;;;;;;;;5039397;28;20021;-68
2021/08/28 14:03:56;;;;;;;6.18;4.47;;;;;;;;;;5039634;28;20503;-68
2021/08/28 14:06:22;;;;;;;8.55;4.47;;;;;;;;;;5038879;28;20033;-68
2021/08/28 14:08:48;;;;;;;10.88;5.07;;;;;;;;;;5037656;28;20108;-67
2021/08/28 14:11:14;;;;;;;8.75;4.35;;;;;;;;;;5025278;28;20070;-68
2021/08/28 14:13:40;;;;;;;12.95;4.82;;;;;;;;;;5032991;28;20021;-68
2021/08/28 14:16:07;;;;;;;9.52;4.70;;;;;;;;;;5033678;28;20090;-68
2021/08/28 14:18:34;;;;;;;10.95;4.50;;;;;;;;;;5039387;28;20040;-67
2021/08/28 14:21:00;;;;;;;9.32;4.25;;;;;;;;;;5039059;28;20017;-68
2021/08/28 14:23:27;;;;;;;12.07;5.13;;;;;;;;;;5037290;28;20032;-67
2021/08/28 14:25:53;;;;;;;10.73;4.90;;;;;;;;;;5037790;28;20025;-68
2021/08/28 14:28:20;;;;;;;9.68;5.28;;;;;;;;;;5038951;28;20612;-68
2021/08/28 14:30:47;;;;;;;9.73;4.53;;;;;;;;;;5039283;28;20519;-68
2021/08/28 14:33:13;;;;;;;8.63;4.65;;;;;;;;;;5039238;28;20108;-68
2021/08/28 14:35:39;;;;;;;10.02;4.53;;;;;;;;;;5025718;28;20036;-68
2021/08/28 14:38:05;;;;;;;5.30;4.20;;;;;;;;;;5025497;28;20045;-68
2021/08/28 14:40:32;;;;;;;9.50;4.75;;;;;;;;;;5037710;28;20036;-67
2021/08/28 14:42:58;;;;;;;7.47;4.68;;;;;;;;;;5039255;28;20476;-68